X  Close Metar Aviation Weather Data     EGLF Farnborough
Temperature
11°C Temperature
9°C Dewpoint
88% Humidity



Wind
10 MPH
16 KM/H
4 M/S
9 KTS



240°
WSW
Current Conditions

Clear Clear
Pressure 998.92 (hPa) - 29.5 (inHg)
Visibility 6.2 (mile) - 10 (km)
Airport
Airport-code EGLF

Location: Farnborough
Distance: 5 (mi)

Metar:
EGLF 050020Z AUTO 24009KT 9999 NCD 11/09 Q0999

Time: 05-06-2020 01:20 BST